sensor_id;sensor_type;location;lat;lon;timestamp;temperature;humidity
30628;DHT22;17394;50.890;4.724;2023-03-01T00:01:31;-3.20;99.90
30628;DHT22;17394;50.890;4.724;2023-03-01T00:03:57;-3.10;99.90
30628;DHT22;17394;50.890;4.724;2023-03-01T00:06:24;-3.20;99.90
30628;DHT22;17394;50.890;4.724;2023-03-01T00:08:50;-3.20;99.90
30628;DHT22;17394;50.890;4.724;2023-03-01T00:11:16;-3.20;99.90
30628;DHT22;17394;50.890;4.724;2023-03-01T00:13:43;-3.10;99.90
30628;DHT22;17394;50.890;4.724;2023-03-01T00:16:11;-3.10;99.90
30628;DHT22;17394;50.890;4.724;2023-03-01T00:18:37;-3.00;99.90
30628;DHT22;17394;50.890;4.724;2023-03-01T00:21:03;-3.00;99.90
30628;DHT22;17394;50.890;4.724;2023-03-01T00:23:28;-3.10;99.90
30628;DHT22;17394;50.890;4.724;2023-03-01T00:25:54;-3.10;99.90
30628;DHT22;17394;50.890;4.724;2023-03-01T00:28:20;-3.00;99.90
30628;DHT22;17394;50.890;4.724;2023-03-01T00:30:46;-3.00;99.90
30628;DHT22;17394;50.890;4.724;2023-03-01T00:33:12;-3.00;99.90
30628;DHT22;17394;50.890;4.724;2023-03-01T00:35:37;-3.10;99.90
30628;DHT22;17394;50.890;4.724;2023-03-01T00:38:03;-3.10;99.90
30628;DHT22;17394;50.890;4.724;2023-03-01T00:40:29;-3.10;99.90
30628;DHT22;17394;50.890;4.724;2023-03-01T00:42:55;-3.10;99.90
30628;DHT22;17394;50.890;4.724;2023-03-01T00:45:21;-3.10;99.90
30628;DHT22;17394;50.890;4.724;2023-03-01T00:47:48;-3.10;99.90
30628;DHT22;17394;50.890;4.724;2023-03-01T00:50:13;-3.20;99.90
30628;DHT22;17394;50.890;4.724;2023-03-01T00:52:39;-3.30;99.90
30628;DHT22;17394;50.890;4.724;2023-03-01T00:55:05;-3.40;99.90
30628;DHT22;17394;50.890;4.724;2023-03-01T00:57:31;-3.40;99.90
30628;DHT22;17394;50.890;4.724;2023-03-01T00:59:57;-3.30;99.90
30628;DHT22;17394;50.890;4.724;2023-03-01T01:02:23;-3.20;99.90
30628;DHT22;17394;50.890;4.724;2023-03-01T01:04:48;-3.10;99.90
30628;DHT22;17394;50.890;4.724;2023-03-01T01:07:14;-3.10;99.90
30628;DHT22;17394;50.890;4.724;2023-03-01T01:09:40;-3.10;99.90
30628;DHT22;17394;50.890;4.724;2023-03-01T01:12:05;-3.10;99.90
30628;DHT22;17394;50.890;4.724;2023-03-01T01:14:31;-3.20;99.90
30628;DHT22;17394;50.890;4.724;2023-03-01T01:16:57;-3.30;99.90
30628;DHT22;17394;50.890;4.724;2023-03-01T01:19:23;-3.40;99.90
30628;DHT22;17394;50.890;4.724;2023-03-01T01:21:49;-3.40;99.90
30628;DHT22;17394;50.890;4.724;2023-03-01T01:24:15;-3.40;99.90
30628;DHT22;17394;50.890;4.724;2023-03-01T01:26:41;-3.40;99.90
30628;DHT22;17394;50.890;4.724;2023-03-01T01:29:07;-3.50;99.90
30628;DHT22;17394;50.890;4.724;2023-03-01T01:31:33;-3.50;99.90
30628;DHT22;17394;50.890;4.724;2023-03-01T01:33:59;-3.60;99.90
30628;DHT22;17394;50.890;4.724;2023-03-01T01:36:25;-3.70;99.90
30628;DHT22;17394;50.890;4.724;2023-03-01T01:38:51;-3.80;99.90
30628;DHT22;17394;50.890;4.724;2023-03-01T01:41:17;-3.80;99.90
30628;DHT22;17394;50.890;4.724;2023-03-01T01:43:44;-3.90;99.90
30628;DHT22;17394;50.890;4.724;2023-03-01T01:46:27;-4.00;99.90
30628;DHT22;17394;50.890;4.724;2023-03-01T01:49:05;-4.10;99.90
30628;DHT22;17394;50.890;4.724;2023-03-01T01:51:32;-4.20;99.90
30628;DHT22;17394;50.890;4.724;2023-03-01T01:54:05;-4.20;99.90
30628;DHT22;17394;50.890;4.724;2023-03-01T01:56:32;-4.20;99.90
30628;DHT22;17394;50.890;4.724;2023-03-01T01:58:58;-4.30;99.90
30628;DHT22;17394;50.890;4.724;2023-03-01T02:01:24;-4.30;99.90
30628;DHT22;17394;50.890;4.724;2023-03-01T02:03:50;-4.40;99.90
30628;DHT22;17394;50.890;4.724;2023-03-01T02:06:51;-4.50;99.90
30628;DHT22;17394;50.890;4.724;2023-03-01T02:09:09;-4.50;99.90
30628;DHT22;17394;50.890;4.724;2023-03-01T02:11:35;-4.50;99.90
30628;DHT22;17394;50.890;4.724;2023-03-01T02:14:03;-4.50;99.90
30628;DHT22;17394;50.890;4.724;2023-03-01T02:16:29;-4.50;99.90
30628;DHT22;17394;50.890;4.724;2023-03-01T02:18:54;-4.40;99.90
30628;DHT22;17394;50.890;4.724;2023-03-01T02:21:46;-4.30;99.90
30628;DHT22;17394;50.890;4.724;2023-03-01T02:24:14;-4.10;99.90
30628;DHT22;17394;50.890;4.724;2023-03-01T02:26:45;-4.00;99.90
30628;DHT22;17394;50.890;4.724;2023-03-01T02:29:11;-3.90;99.90
30628;DHT22;17394;50.890;4.724;2023-03-01T02:31:37;-4.00;99.90
30628;DHT22;17394;50.890;4.724;2023-03-01T02:34:11;-4.10;99.90
30628;DHT22;17394;50.890;4.724;2023-03-01T02:36:38;-4.10;99.90
30628;DHT22;17394;50.890;4.724;2023-03-01T02:39:06;-4.30;99.90
30628;DHT22;17394;50.890;4.724;2023-03-01T02:41:35;-4.30;99.90
30628;DHT22;17394;50.890;4.724;2023-03-01T02:44:01;-4.40;99.90
30628;DHT22;17394;50.890;4.724;2023-03-01T02:46:27;-4.40;99.90
30628;DHT22;17394;50.890;4.724;2023-03-01T02:48:53;-4.50;99.90
30628;DHT22;17394;50.890;4.724;2023-03-01T02:54:05;-4.40;99.90
30628;DHT22;17394;50.890;4.724;2023-03-01T02:56:32;-4.40;99.90
30628;DHT22;17394;50.890;4.724;2023-03-01T02:58:58;-4.40;99.90
30628;DHT22;17394;50.890;4.724;2023-03-01T03:01:26;-4.30;99.90
30628;DHT22;17394;50.890;4.724;2023-03-01T03:04:20;-4.30;99.90
30628;DHT22;17394;50.890;4.724;2023-03-01T03:06:46;-4.30;99.90
30628;DHT22;17394;50.890;4.724;2023-03-01T03:09:12;-4.30;99.90
30628;DHT22;17394;50.890;4.724;2023-03-01T03:11:38;-4.30;99.90
30628;DHT22;17394;50.890;4.724;2023-03-01T03:14:08;-4.40;99.90
30628;DHT22;17394;50.890;4.724;2023-03-01T03:16:41;-4.30;99.90
30628;DHT22;17394;50.890;4.724;2023-03-01T03:19:07;-4.30;99.90
30628;DHT22;17394;50.890;4.724;2023-03-01T03:21:32;-4.30;99.90
30628;DHT22;17394;50.890;4.724;2023-03-01T03:23:58;-4.30;99.90
30628;DHT22;17394;50.890;4.724;2023-03-01T03:26:24;-4.30;99.90
30628;DHT22;17394;50.890;4.724;2023-03-01T03:28:50;-4.30;99.90
30628;DHT22;17394;50.890;4.724;2023-03-01T03:31:16;-4.40;99.90
30628;DHT22;17394;50.890;4.724;2023-03-01T03:33:41;-4.50;99.90
30628;DHT22;17394;50.890;4.724;2023-03-01T03:36:07;-4.50;99.90
30628;DHT22;17394;50.890;4.724;2023-03-01T03:38:41;-4.50;99.90
30628;DHT22;17394;50.890;4.724;2023-03-01T03:41:07;-4.50;99.90
30628;DHT22;17394;50.890;4.724;2023-03-01T03:43:34;-4.60;99.90
30628;DHT22;17394;50.890;4.724;2023-03-01T03:46:00;-4.60;99.90
30628;DHT22;17394;50.890;4.724;2023-03-01T03:48:26;-4.70;99.90
30628;DHT22;17394;50.890;4.724;2023-03-01T03:50:53;-4.80;99.90
30628;DHT22;17394;50.890;4.724;2023-03-01T03:53:20;-4.90;99.90
30628;DHT22;17394;50.890;4.724;2023-03-01T03:55:45;-4.80;99.90
30628;DHT22;17394;50.890;4.724;2023-03-01T03:58:14;-4.80;99.90
30628;DHT22;17394;50.890;4.724;2023-03-01T04:00:41;-4.90;99.90
30628;DHT22;17394;50.890;4.724;2023-03-01T04:03:07;-4.90;99.90
30628;DHT22;17394;50.890;4.724;2023-03-01T04:05:33;-5.00;99.90
30628;DHT22;17394;50.890;4.724;2023-03-01T04:07:59;-5.00;99.90
30628;DHT22;17394;50.890;4.724;2023-03-01T04:10:32;-5.10;99.90
30628;DHT22;17394;50.890;4.724;2023-03-01T04:12:57;-5.20;99.90
30628;DHT22;17394;50.890;4.724;2023-03-01T04:15:24;-5.20;99.90
30628;DHT22;17394;50.890;4.724;2023-03-01T04:17:51;-5.30;99.90
30628;DHT22;17394;50.890;4.724;2023-03-01T04:20:19;-5.40;99.90
30628;DHT22;17394;50.890;4.724;2023-03-01T04:23:05;-5.40;99.90
30628;DHT22;17394;50.890;4.724;2023-03-01T04:28:07;-5.50;99.90
30628;DHT22;17394;50.890;4.724;2023-03-01T04:30:33;-5.50;99.90
30628;DHT22;17394;50.890;4.724;2023-03-01T04:33:04;-5.40;99.90
30628;DHT22;17394;50.890;4.724;2023-03-01T04:35:31;-5.40;99.90
30628;DHT22;17394;50.890;4.724;2023-03-01T04:37:57;-5.40;99.90
30628;DHT22;17394;50.890;4.724;2023-03-01T04:40:22;-5.40;99.90
30628;DHT22;17394;50.890;4.724;2023-03-01T04:42:48;-5.50;99.90
30628;DHT22;17394;50.890;4.724;2023-03-01T04:45:14;-5.40;99.90
30628;DHT22;17394;50.890;4.724;2023-03-01T04:47:40;-5.50;99.90
30628;DHT22;17394;50.890;4.724;2023-03-01T04:50:06;-5.60;99.90
30628;DHT22;17394;50.890;4.724;2023-03-01T04:52:32;-5.60;99.90
30628;DHT22;17394;50.890;4.724;2023-03-01T04:54:58;-5.60;99.90
30628;DHT22;17394;50.890;4.724;2023-03-01T04:57:23;-5.60;99.90
30628;DHT22;17394;50.890;4.724;2023-03-01T04:59:49;-5.60;99.90
30628;DHT22;17394;50.890;4.724;2023-03-01T05:02:14;-5.60;99.90
30628;DHT22;17394;50.890;4.724;2023-03-01T05:04:40;-5.60;99.90
30628;DHT22;17394;50.890;4.724;2023-03-01T05:07:06;-5.50;99.90
30628;DHT22;17394;50.890;4.724;2023-03-01T05:09:31;-5.30;99.90
30628;DHT22;17394;50.890;4.724;2023-03-01T05:11:57;-5.30;99.90
30628;DHT22;17394;50.890;4.724;2023-03-01T05:14:23;-5.20;99.90
30628;DHT22;17394;50.890;4.724;2023-03-01T05:16:48;-5.30;99.90
30628;DHT22;17394;50.890;4.724;2023-03-01T05:19:14;-5.40;99.90
30628;DHT22;17394;50.890;4.724;2023-03-01T05:21:48;-5.50;99.90
30628;DHT22;17394;50.890;4.724;2023-03-01T05:24:30;-5.50;99.90
30628;DHT22;17394;50.890;4.724;2023-03-01T05:26:56;-5.60;99.90
30628;DHT22;17394;50.890;4.724;2023-03-01T05:29:22;-5.70;99.90
30628;DHT22;17394;50.890;4.724;2023-03-01T05:31:53;-5.60;99.90
30628;DHT22;17394;50.890;4.724;2023-03-01T05:34:26;-5.60;99.90
30628;DHT22;17394;50.890;4.724;2023-03-01T05:36:53;-5.60;99.90
30628;DHT22;17394;50.890;4.724;2023-03-01T05:39:22;-5.70;99.90
30628;DHT22;17394;50.890;4.724;2023-03-01T05:41:51;-5.70;99.90
30628;DHT22;17394;50.890;4.724;2023-03-01T05:44:17;-5.70;99.90
30628;DHT22;17394;50.890;4.724;2023-03-01T05:46:43;-5.80;99.90
30628;DHT22;17394;50.890;4.724;2023-03-01T05:49:10;-5.80;99.90
30628;DHT22;17394;50.890;4.724;2023-03-01T05:51:36;-5.90;99.90
30628;DHT22;17394;50.890;4.724;2023-03-01T05:54:01;-5.90;99.90
30628;DHT22;17394;50.890;4.724;2023-03-01T05:56:27;-6.00;99.90
30628;DHT22;17394;50.890;4.724;2023-03-01T05:58:53;-6.00;99.90
30628;DHT22;17394;50.890;4.724;2023-03-01T06:01:18;-6.10;99.90
30628;DHT22;17394;50.890;4.724;2023-03-01T06:03:44;-6.20;99.90
30628;DHT22;17394;50.890;4.724;2023-03-01T06:06:09;-6.10;99.90
30628;DHT22;17394;50.890;4.724;2023-03-01T06:08:35;-6.20;99.90
30628;DHT22;17394;50.890;4.724;2023-03-01T06:11:01;-6.10;99.90
30628;DHT22;17394;50.890;4.724;2023-03-01T06:13:26;-6.20;99.90
30628;DHT22;17394;50.890;4.724;2023-03-01T06:15:52;-6.10;99.90
30628;DHT22;17394;50.890;4.724;2023-03-01T06:18:18;-6.20;99.90
30628;DHT22;17394;50.890;4.724;2023-03-01T06:20:43;-6.20;99.90
30628;DHT22;17394;50.890;4.724;2023-03-01T06:23:09;-6.30;99.90
30628;DHT22;17394;50.890;4.724;2023-03-01T06:25:35;-6.20;99.90
30628;DHT22;17394;50.890;4.724;2023-03-01T06:28:00;-6.30;99.90
30628;DHT22;17394;50.890;4.724;2023-03-01T06:30:26;-6.30;99.90
30628;DHT22;17394;50.890;4.724;2023-03-01T06:32:52;-6.30;99.90
30628;DHT22;17394;50.890;4.724;2023-03-01T06:35:22;-6.30;99.90
30628;DHT22;17394;50.890;4.724;2023-03-01T06:37:48;-5.50;99.90
30628;DHT22;17394;50.890;4.724;2023-03-01T06:40:14;-6.30;99.90
30628;DHT22;17394;50.890;4.724;2023-03-01T06:42:41;-6.30;99.90
30628;DHT22;17394;50.890;4.724;2023-03-01T06:45:07;-6.20;99.90
30628;DHT22;17394;50.890;4.724;2023-03-01T06:47:33;-6.30;99.90
30628;DHT22;17394;50.890;4.724;2023-03-01T06:49:59;-6.20;99.90
30628;DHT22;17394;50.890;4.724;2023-03-01T06:52:25;-6.30;99.90
30628;DHT22;17394;50.890;4.724;2023-03-01T06:54:51;-6.20;99.90
30628;DHT22;17394;50.890;4.724;2023-03-01T06:57:16;-6.20;99.90
30628;DHT22;17394;50.890;4.724;2023-03-01T06:59:42;-6.10;99.90
30628;DHT22;17394;50.890;4.724;2023-03-01T07:02:11;-6.10;99.90
30628;DHT22;17394;50.890;4.724;2023-03-01T07:04:37;-6.00;99.90
30628;DHT22;17394;50.890;4.724;2023-03-01T07:07:03;-5.90;99.90
30628;DHT22;17394;50.890;4.724;2023-03-01T07:09:28;-6.00;99.90
30628;DHT22;17394;50.890;4.724;2023-03-01T07:11:54;-5.90;99.90
30628;DHT22;17394;50.890;4.724;2023-03-01T07:14:21;-5.80;99.90
30628;DHT22;17394;50.890;4.724;2023-03-01T07:16:47;-5.80;99.90
30628;DHT22;17394;50.890;4.724;2023-03-01T07:19:13;-5.70;99.90
30628;DHT22;17394;50.890;4.724;2023-03-01T07:21:38;-5.60;99.90
30628;DHT22;17394;50.890;4.724;2023-03-01T07:24:05;-5.50;99.90
30628;DHT22;17394;50.890;4.724;2023-03-01T07:26:31;-5.30;99.90
30628;DHT22;17394;50.890;4.724;2023-03-01T07:28:58;-5.20;99.90
30628;DHT22;17394;50.890;4.724;2023-03-01T07:31:24;-5.10;99.90
30628;DHT22;17394;50.890;4.724;2023-03-01T07:33:53;-4.90;99.90
30628;DHT22;17394;50.890;4.724;2023-03-01T07:36:19;-4.80;99.90
30628;DHT22;17394;50.890;4.724;2023-03-01T07:38:44;-4.50;99.90
30628;DHT22;17394;50.890;4.724;2023-03-01T07:41:10;-4.30;99.90
30628;DHT22;17394;50.890;4.724;2023-03-01T07:43:36;-4.00;99.90
30628;DHT22;17394;50.890;4.724;2023-03-01T07:46:01;-3.80;99.90
30628;DHT22;17394;50.890;4.724;2023-03-01T07:48:28;-3.60;99.90
30628;DHT22;17394;50.890;4.724;2023-03-01T07:50:54;-3.50;99.90
30628;DHT22;17394;50.890;4.724;2023-03-01T07:53:19;-3.30;99.90
30628;DHT22;17394;50.890;4.724;2023-03-01T07:55:45;-3.10;99.90
30628;DHT22;17394;50.890;4.724;2023-03-01T07:58:10;-2.90;99.90
30628;DHT22;17394;50.890;4.724;2023-03-01T08:00:36;-2.70;99.90
30628;DHT22;17394;50.890;4.724;2023-03-01T08:03:02;-2.50;99.90
30628;DHT22;17394;50.890;4.724;2023-03-01T08:05:28;-2.30;99.90
30628;DHT22;17394;50.890;4.724;2023-03-01T08:07:53;-2.00;99.90
30628;DHT22;17394;50.890;4.724;2023-03-01T08:10:19;-1.70;99.90
30628;DHT22;17394;50.890;4.724;2023-03-01T08:12:45;-1.40;99.90
30628;DHT22;17394;50.890;4.724;2023-03-01T08:15:11;-1.20;99.90
30628;DHT22;17394;50.890;4.724;2023-03-01T08:17:36;-0.90;99.90
30628;DHT22;17394;50.890;4.724;2023-03-01T08:20:02;-0.60;99.90
30628;DHT22;17394;50.890;4.724;2023-03-01T08:22:29;-0.40;99.90
30628;DHT22;17394;50.890;4.724;2023-03-01T08:24:55;-0.20;99.90
30628;DHT22;17394;50.890;4.724;2023-03-01T08:27:21;0.00;99.90
30628;DHT22;17394;50.890;4.724;2023-03-01T08:29:47;0.10;99.90
30628;DHT22;17394;50.890;4.724;2023-03-01T08:32:12;0.40;99.90
30628;DHT22;17394;50.890;4.724;2023-03-01T08:34:38;0.50;99.90
30628;DHT22;17394;50.890;4.724;2023-03-01T08:37:04;0.60;99.90
30628;DHT22;17394;50.890;4.724;2023-03-01T08:39:30;0.70;99.90
30628;DHT22;17394;50.890;4.724;2023-03-01T08:41:55;0.80;99.90
30628;DHT22;17394;50.890;4.724;2023-03-01T08:44:22;0.90;99.90
30628;DHT22;17394;50.890;4.724;2023-03-01T08:46:48;1.00;99.90
30628;DHT22;17394;50.890;4.724;2023-03-01T08:49:16;1.20;99.90
30628;DHT22;17394;50.890;4.724;2023-03-01T08:51:42;1.30;99.90
30628;DHT22;17394;50.890;4.724;2023-03-01T08:54:12;1.50;99.90
30628;DHT22;17394;50.890;4.724;2023-03-01T08:56:38;1.50;99.90
30628;DHT22;17394;50.890;4.724;2023-03-01T08:59:04;1.60;99.90
30628;DHT22;17394;50.890;4.724;2023-03-01T09:01:30;1.70;99.90
30628;DHT22;17394;50.890;4.724;2023-03-01T09:03:55;1.80;99.90
30628;DHT22;17394;50.890;4.724;2023-03-01T09:06:21;1.90;99.90
30628;DHT22;17394;50.890;4.724;2023-03-01T09:08:48;2.00;99.90
30628;DHT22;17394;50.890;4.724;2023-03-01T09:11:14;2.00;99.90
30628;DHT22;17394;50.890;4.724;2023-03-01T09:13:41;2.10;99.90
30628;DHT22;17394;50.890;4.724;2023-03-01T09:16:07;2.30;99.90
30628;DHT22;17394;50.890;4.724;2023-03-01T09:18:33;2.40;99.90
30628;DHT22;17394;50.890;4.724;2023-03-01T09:21:07;2.50;99.90
30628;DHT22;17394;50.890;4.724;2023-03-01T09:23:34;2.70;99.90
30628;DHT22;17394;50.890;4.724;2023-03-01T09:26:01;2.80;99.90
30628;DHT22;17394;50.890;4.724;2023-03-01T09:28:27;2.80;99.90
30628;DHT22;17394;50.890;4.724;2023-03-01T09:30:53;2.90;99.90
30628;DHT22;17394;50.890;4.724;2023-03-01T09:33:18;3.00;99.90
30628;DHT22;17394;50.890;4.724;2023-03-01T09:35:47;3.10;99.90
30628;DHT22;17394;50.890;4.724;2023-03-01T09:38:13;3.20;99.90
30628;DHT22;17394;50.890;4.724;2023-03-01T09:40:43;3.30;99.90
30628;DHT22;17394;50.890;4.724;2023-03-01T09:43:21;3.40;99.90
30628;DHT22;17394;50.890;4.724;2023-03-01T09:45:54;3.60;99.90
30628;DHT22;17394;50.890;4.724;2023-03-01T09:48:29;3.70;99.90
30628;DHT22;17394;50.890;4.724;2023-03-01T09:51:06;3.90;99.90
30628;DHT22;17394;50.890;4.724;2023-03-01T09:53:34;4.00;99.90
30628;DHT22;17394;50.890;4.724;2023-03-01T09:56:02;4.10;99.90
30628;DHT22;17394;50.890;4.724;2023-03-01T10:07:27;4.40;99.90
30628;DHT22;17394;50.890;4.724;2023-03-01T10:09:57;4.60;99.90
30628;DHT22;17394;50.890;4.724;2023-03-01T10:12:29;4.80;99.90
30628;DHT22;17394;50.890;4.724;2023-03-01T10:15:18;4.90;99.90
30628;DHT22;17394;50.890;4.724;2023-03-01T10:17:57;4.90;99.90
30628;DHT22;17394;50.890;4.724;2023-03-01T10:20:48;5.00;99.90
30628;DHT22;17394;50.890;4.724;2023-03-01T10:23:15;5.20;99.90
30628;DHT22;17394;50.890;4.724;2023-03-01T10:28:35;5.40;99.90
30628;DHT22;17394;50.890;4.724;2023-03-01T10:31:17;5.60;99.90
30628;DHT22;17394;50.890;4.724;2023-03-01T10:33:47;5.80;99.90
30628;DHT22;17394;50.890;4.724;2023-03-01T10:36:26;5.80;99.90
30628;DHT22;17394;50.890;4.724;2023-03-01T10:38:55;5.80;99.90
30628;DHT22;17394;50.890;4.724;2023-03-01T10:41:22;5.90;99.90
30628;DHT22;17394;50.890;4.724;2023-03-01T10:43:52;6.10;99.90
30628;DHT22;17394;50.890;4.724;2023-03-01T10:49:05;6.20;99.90
30628;DHT22;17394;50.890;4.724;2023-03-01T10:51:31;6.40;99.90
30628;DHT22;17394;50.890;4.724;2023-03-01T10:53:57;6.50;99.90
30628;DHT22;17394;50.890;4.724;2023-03-01T10:56:23;6.60;99.90
30628;DHT22;17394;50.890;4.724;2023-03-01T11:06:36;6.30;99.90
30628;DHT22;17394;50.890;4.724;2023-03-01T11:09:14;6.30;99.90
30628;DHT22;17394;50.890;4.724;2023-03-01T11:11:41;6.40;99.90
30628;DHT22;17394;50.890;4.724;2023-03-01T11:14:17;6.50;99.90
30628;DHT22;17394;50.890;4.724;2023-03-01T11:16:45;6.50;99.90
30628;DHT22;17394;50.890;4.724;2023-03-01T11:24:23;6.30;99.90
30628;DHT22;17394;50.890;4.724;2023-03-01T11:26:55;6.20;99.90
30628;DHT22;17394;50.890;4.724;2023-03-01T11:29:30;6.30;99.90
30628;DHT22;17394;50.890;4.724;2023-03-01T11:32:06;6.50;99.90
30628;DHT22;17394;50.890;4.724;2023-03-01T11:34:48;6.50;99.90
30628;DHT22;17394;50.890;4.724;2023-03-01T11:37:26;6.60;99.90
30628;DHT22;17394;50.890;4.724;2023-03-01T11:40:05;6.60;99.90
30628;DHT22;17394;50.890;4.724;2023-03-01T11:42:40;6.60;99.90
30628;DHT22;17394;50.890;4.724;2023-03-01T11:45:13;6.40;99.90
30628;DHT22;17394;50.890;4.724;2023-03-01T11:47:53;6.40;99.90
30628;DHT22;17394;50.890;4.724;2023-03-01T11:53:13;6.30;99.90
30628;DHT22;17394;50.890;4.724;2023-03-01T11:59:07;6.30;99.90
30628;DHT22;17394;50.890;4.724;2023-03-01T12:08:52;6.20;99.90
30628;DHT22;17394;50.890;4.724;2023-03-01T12:24:47;6.40;99.90
30628;DHT22;17394;50.890;4.724;2023-03-01T12:27:30;6.30;99.90
30628;DHT22;17394;50.890;4.724;2023-03-01T12:30:10;6.30;99.90
30628;DHT22;17394;50.890;4.724;2023-03-01T12:32:52;6.30;99.90
30628;DHT22;17394;50.890;4.724;2023-03-01T12:35:23;6.30;99.90
30628;DHT22;17394;50.890;4.724;2023-03-01T12:40:38;6.40;99.90
30628;DHT22;17394;50.890;4.724;2023-03-01T12:50:42;6.30;99.90
30628;DHT22;17394;50.890;4.724;2023-03-01T12:55:49;6.40;99.90
30628;DHT22;17394;50.890;4.724;2023-03-01T13:01:02;6.40;99.90
30628;DHT22;17394;50.890;4.724;2023-03-01T13:06:07;6.40;99.90
30628;DHT22;17394;50.890;4.724;2023-03-01T13:08:41;6.40;99.90
30628;DHT22;17394;50.890;4.724;2023-03-01T13:11:27;6.30;99.90
30628;DHT22;17394;50.890;4.724;2023-03-01T13:14:03;6.40;99.90
30628;DHT22;17394;50.890;4.724;2023-03-01T13:16:40;6.40;99.90
30628;DHT22;17394;50.890;4.724;2023-03-01T13:19:27;6.40;99.90
30628;DHT22;17394;50.890;4.724;2023-03-01T13:21:57;6.40;99.90
30628;DHT22;17394;50.890;4.724;2023-03-01T13:29:30;6.60;99.90
30628;DHT22;17394;50.890;4.724;2023-03-01T13:32:31;6.60;99.90
30628;DHT22;17394;50.890;4.724;2023-03-01T13:37:30;6.50;99.90
30628;DHT22;17394;50.890;4.724;2023-03-01T13:39:59;6.50;99.90
30628;DHT22;17394;50.890;4.724;2023-03-01T13:42:46;6.50;99.90
30628;DHT22;17394;50.890;4.724;2023-03-01T13:45:17;6.60;99.90
30628;DHT22;17394;50.890;4.724;2023-03-01T13:47:46;6.60;99.90
30628;DHT22;17394;50.890;4.724;2023-03-01T13:50:19;6.60;99.90
30628;DHT22;17394;50.890;4.724;2023-03-01T13:55:41;6.60;99.90
30628;DHT22;17394;50.890;4.724;2023-03-01T14:00:55;6.60;99.90
30628;DHT22;17394;50.890;4.724;2023-03-01T14:03:27;6.60;99.90
30628;DHT22;17394;50.890;4.724;2023-03-01T14:06:06;6.50;99.90
30628;DHT22;17394;50.890;4.724;2023-03-01T14:08:33;6.50;99.90
30628;DHT22;17394;50.890;4.724;2023-03-01T14:19:18;6.50;99.90
30628;DHT22;17394;50.890;4.724;2023-03-01T14:24:28;6.50;99.90
30628;DHT22;17394;50.890;4.724;2023-03-01T14:27:01;6.50;99.90
30628;DHT22;17394;50.890;4.724;2023-03-01T14:29:37;6.50;99.90
30628;DHT22;17394;50.890;4.724;2023-03-01T14:32:18;6.40;99.90
30628;DHT22;17394;50.890;4.724;2023-03-01T14:34:47;6.40;99.90
30628;DHT22;17394;50.890;4.724;2023-03-01T14:37:33;6.40;99.90
30628;DHT22;17394;50.890;4.724;2023-03-01T14:40:00;6.40;99.90
30628;DHT22;17394;50.890;4.724;2023-03-01T14:42:36;6.40;99.90
30628;DHT22;17394;50.890;4.724;2023-03-01T14:45:05;6.40;99.90
30628;DHT22;17394;50.890;4.724;2023-03-01T14:47:33;6.40;99.90
30628;DHT22;17394;50.890;4.724;2023-03-01T14:50:07;6.40;99.90
30628;DHT22;17394;50.890;4.724;2023-03-01T14:52:40;6.40;99.90
30628;DHT22;17394;50.890;4.724;2023-03-01T14:55:13;6.40;99.90
30628;DHT22;17394;50.890;4.724;2023-03-01T14:57:44;6.40;99.90
30628;DHT22;17394;50.890;4.724;2023-03-01T15:00:21;6.40;99.90
30628;DHT22;17394;50.890;4.724;2023-03-01T15:02:51;6.30;99.90
30628;DHT22;17394;50.890;4.724;2023-03-01T15:05:19;6.30;99.90
30628;DHT22;17394;50.890;4.724;2023-03-01T15:07:48;6.30;99.90
30628;DHT22;17394;50.890;4.724;2023-03-01T15:10:22;6.20;99.90
30628;DHT22;17394;50.890;4.724;2023-03-01T15:12:48;6.20;99.90
30628;DHT22;17394;50.890;4.724;2023-03-01T15:18:11;6.20;99.90
30628;DHT22;17394;50.890;4.724;2023-03-01T15:20:39;6.20;99.90
30628;DHT22;17394;50.890;4.724;2023-03-01T15:23:04;6.20;99.90
30628;DHT22;17394;50.890;4.724;2023-03-01T15:25:31;6.20;99.90
30628;DHT22;17394;50.890;4.724;2023-03-01T15:27:57;6.20;99.90
30628;DHT22;17394;50.890;4.724;2023-03-01T15:30:24;6.20;99.90
30628;DHT22;17394;50.890;4.724;2023-03-01T15:33:15;6.20;99.90
30628;DHT22;17394;50.890;4.724;2023-03-01T15:35:45;6.10;99.90
30628;DHT22;17394;50.890;4.724;2023-03-01T15:40:55;6.10;99.90
30628;DHT22;17394;50.890;4.724;2023-03-01T15:43:37;6.10;99.90
30628;DHT22;17394;50.890;4.724;2023-03-01T15:46:03;6.10;99.90
30628;DHT22;17394;50.890;4.724;2023-03-01T15:48:29;5.90;99.90
30628;DHT22;17394;50.890;4.724;2023-03-01T15:50:55;6.00;99.90
30628;DHT22;17394;50.890;4.724;2023-03-01T15:53:22;5.90;99.90
30628;DHT22;17394;50.890;4.724;2023-03-01T15:55:48;5.90;99.90
30628;DHT22;17394;50.890;4.724;2023-03-01T15:58:17;5.90;99.90
30628;DHT22;17394;50.890;4.724;2023-03-01T16:00:43;5.90;99.90
30628;DHT22;17394;50.890;4.724;2023-03-01T16:03:10;5.90;99.90
30628;DHT22;17394;50.890;4.724;2023-03-01T16:05:37;5.90;99.90
30628;DHT22;17394;50.890;4.724;2023-03-01T16:08:03;5.80;99.90
30628;DHT22;17394;50.890;4.724;2023-03-01T16:10:29;5.70;99.90
30628;DHT22;17394;50.890;4.724;2023-03-01T16:12:55;5.70;99.90
30628;DHT22;17394;50.890;4.724;2023-03-01T16:15:22;5.60;99.90
30628;DHT22;17394;50.890;4.724;2023-03-01T16:17:48;5.60;99.90
30628;DHT22;17394;50.890;4.724;2023-03-01T16:20:14;5.60;99.90
30628;DHT22;17394;50.890;4.724;2023-03-01T16:22:43;5.60;99.90
30628;DHT22;17394;50.890;4.724;2023-03-01T16:25:12;5.50;99.90
30628;DHT22;17394;50.890;4.724;2023-03-01T16:27:38;5.40;99.90
30628;DHT22;17394;50.890;4.724;2023-03-01T16:30:07;5.40;99.90
30628;DHT22;17394;50.890;4.724;2023-03-01T16:32:32;5.30;99.90
30628;DHT22;17394;50.890;4.724;2023-03-01T16:34:58;5.20;99.90
30628;DHT22;17394;50.890;4.724;2023-03-01T16:37:24;5.10;99.90
30628;DHT22;17394;50.890;4.724;2023-03-01T16:39:49;5.10;99.90
30628;DHT22;17394;50.890;4.724;2023-03-01T16:42:17;5.10;99.90
30628;DHT22;17394;50.890;4.724;2023-03-01T16:44:42;5.00;99.90
30628;DHT22;17394;50.890;4.724;2023-03-01T16:47:08;5.00;99.90
30628;DHT22;17394;50.890;4.724;2023-03-01T16:49:34;5.00;99.90
30628;DHT22;17394;50.890;4.724;2023-03-01T16:51:59;4.90;99.90
30628;DHT22;17394;50.890;4.724;2023-03-01T16:54:25;4.80;99.90
30628;DHT22;17394;50.890;4.724;2023-03-01T16:56:51;4.70;99.90
30628;DHT22;17394;50.890;4.724;2023-03-01T16:59:16;4.60;99.90
30628;DHT22;17394;50.890;4.724;2023-03-01T17:01:44;4.50;99.90
30628;DHT22;17394;50.890;4.724;2023-03-01T17:04:10;4.50;99.90
30628;DHT22;17394;50.890;4.724;2023-03-01T17:06:36;4.40;99.90
30628;DHT22;17394;50.890;4.724;2023-03-01T17:09:02;4.30;99.90
30628;DHT22;17394;50.890;4.724;2023-03-01T17:11:28;4.20;99.90
30628;DHT22;17394;50.890;4.724;2023-03-01T17:13:53;4.00;99.90
30628;DHT22;17394;50.890;4.724;2023-03-01T17:16:19;4.00;99.90
30628;DHT22;17394;50.890;4.724;2023-03-01T17:18:45;3.90;99.90
30628;DHT22;17394;50.890;4.724;2023-03-01T17:21:11;3.80;99.90
30628;DHT22;17394;50.890;4.724;2023-03-01T17:23:38;3.70;99.90
30628;DHT22;17394;50.890;4.724;2023-03-01T17:26:04;3.60;99.90
30628;DHT22;17394;50.890;4.724;2023-03-01T17:28:30;3.50;99.90
30628;DHT22;17394;50.890;4.724;2023-03-01T17:30:58;3.40;99.90
30628;DHT22;17394;50.890;4.724;2023-03-01T17:33:23;3.30;99.90